Latest Coastal Weather Observations for Lake Macquarie - Cooranbong

IDN60701

Issued at 6:55 pm EST Tuesday 29 July 2014 (issued every 10 minutes, with the page automatically refreshed every 10 minutes)

About coastal observations | Map of coastal stations | Coastal observations for NSW | Marine services | Other Formats
Station Details ID: 061412 Name: LAKE MACQUARIE AWS Lat: -33.09 Lon: 151.46 Height: 6.0 m
Data from the previous 72 hours. | See also: Recent months at Lake Macquarie - Cooranbong
Date/Time
EST
Temp

°C
Wind Pressure Rain
since 9am
mm
Weather Cloud Vis
km
Sea
Height
m
Swell
Dir
 
Speed
knots
Gust
knots
hPa Trend Height
m
Period
s
Dir
29/06:30pm 11.6 CALM 0 2 1017.7 - 0.0 - - - - - - -
29/06:00pm 11.7 N 1 2 1017.3 - 0.0 - - - - - - -
29/05:30pm 14.2 NW 1 2 1016.6 - 0.0 - - - - - - -
29/05:00pm 16.7 N 2 3 1016.3 - 0.0 - - - - - - -
29/04:30pm 20.2 NNW 4 8 1016.0 - 0.0 - - - - - - -
29/04:00pm 20.4 NNW 6 10 1015.4 - 0.0 - - - - - - -
29/03:30pm 20.7 NNW 7 12 1015.4 - 0.0 - - - - - - -
29/03:00pm 20.9 N 9 14 1015.7 - 0.0 - - - - - - -
29/02:30pm 21.2 NNW 6 10 1015.8 - 0.0 - - - - - - -
29/02:00pm 21.3 NNW 6 9 1016.1 - 0.0 - - - - - - -
29/01:30pm 21.1 NNW 6 9 1016.1 - 0.0 - - - - - - -
29/01:00pm 20.4 NNW 7 12 1016.4 - 0.0 - - - - - - -
29/12:30pm 20.0 NW 7 16 1016.5 - 0.0 - - - - - - -
29/12:00pm 20.2 NW 8 15 1017.1 - 0.0 - - - - - - -
29/11:30am 19.6 NW 8 19 1018.0 - 0.0 - - - - - - -
29/11:00am 19.7 NNW 7 14 1018.8 - 0.0 - - - - - - -
29/10:30am 19.0 N 6 14 1019.4 - 0.0 - - - - - - -
29/10:00am 18.4 N 3 6 1019.7 - 0.0 - - - - - - -
29/09:30am 17.5 N 4 8 1019.7 - 0.0 - - - - - - -
29/09:00am 16.9 NW 5 11 1019.5 - 0.2 - - - - - - -
29/08:30am 16.0 NW 5 10 1019.3 - 0.2 - - - - - - -
29/08:00am 14.4 WNW 4 8 1019.4 - 0.2 - - - - - - -
29/07:30am 8.9 E 1 2 1019.5 - 0.2 - - - - - - -
29/07:00am 9.2 E 1 3 1019.5 - 0.2 - - - - - - -
29/06:30am 12.2 NW 3 7 1019.1 - 0.2 - - - - - - -
29/06:00am 12.5 WNW 4 6 1018.8 - 0.2 - - - - - - -
29/05:30am 9.4 CALM 0 2 1018.7 - 0.2 - - - - - - -
29/05:00am 9.9 NNW 1 2 1018.6 - 0.2 - - - - - - -
29/04:30am 9.5 N 2 3 1018.7 - 0.2 - - - - - - -
29/04:00am 12.5 NNW 2 5 1018.6 - 0.2 - - - - - - -
29/03:30am 11.3 NNW 2 5 1018.4 - 0.2 - - - - - - -
29/03:00am 8.6 NNW 2 5 1018.5 - 0.2 Recent precip. - - - - - -
29/02:30am 6.5 N 1 3 1018.5 - 0.2 - - - - - - -
29/02:00am 6.3 NE 2 4 1018.9 - 0.0 - - - - - - -
29/01:30am 6.2 E 1 2 1018.9 - 0.0 - - - - - - -
29/01:00am 6.6 CALM 0 0 1019.0 - 0.0 - - - - - - -
29/12:30am 6.4 CALM 0 0 1019.3 - 0.0 - - - - - - -
29/12:00am 6.4 NE 0 0 1019.7 - 0.0 - - - - - - -
 
Date/Time
EST
Temp

°C
Wind Pressure Rain
since 9am
mm
Weather Cloud Vis
km
Sea
Height
m
Swell
Dir
 
Speed
knots
Gust
knots
hPa Trend Height
m
Period
s
Dir
28/11:30pm 6.3 NNE 1 2 1020.2 - 0.0 - - - - - - -
28/11:00pm 5.9 ENE 1 3 1020.2 - 0.0 - - - - - - -
28/10:30pm 6.3 N 1 3 1020.3 - 0.0 - - - - - - -
28/10:00pm 6.5 NNW 1 2 1020.5 - 0.0 - - - - - - -
28/09:30pm 7.1 CALM 0 0 1020.6 - 0.0 - - - - - - -
28/09:00pm 7.3 CALM 0 0 1020.4 - 0.0 - - - - - - -
28/08:30pm 8.5 CALM 0 2 1020.2 - 0.0 - - - - - - -
28/08:00pm 9.6 NNW 1 2 1020.1 - 0.0 - - - - - - -
28/07:30pm 8.9 CALM 0 0 1020.0 - 0.0 - - - - - - -
28/07:00pm 10.0 CALM 0 0 1019.8 - 0.0 - - - - - - -
28/06:30pm 11.0 N 2 3 1019.6 - 0.0 - - - - - - -
28/06:00pm 11.1 CALM 0 0 1019.2 - 0.0 - - - - - - -
28/05:30pm 12.4 CALM 0 0 1019.2 - 0.0 - - - - - - -
28/05:00pm 14.1 CALM 0 1 1018.8 - 0.0 - - - - - - -
28/04:30pm 15.3 CALM 0 0 1018.7 - 0.0 - - - - - - -
28/04:00pm 18.2 CALM 0 0 1018.5 - 0.0 - - - - - - -
28/03:30pm 19.0 WNW 5 8 1018.4 - 0.0 - - - - - - -
28/03:00pm 20.0 WNW 6 11 1018.3 - 0.0 - - - - - - -
28/02:30pm 20.1 NNW 4 7 1018.5 - 0.0 - - - - - - -
28/02:00pm 19.6 WNW 5 9 1018.7 - 0.0 - - - - - - -
28/01:30pm 19.3 NW 5 9 1018.9 - 0.0 - - - - - - -
28/01:00pm 19.3 NNW 5 8 1019.5 - 0.0 - - - - - - -
28/12:30pm 18.1 NNW 6 11 1020.0 - 0.0 - - - - - - -
28/12:00pm 18.0 NW 5 8 1020.5 - 0.0 - - - - - - -
28/11:30am 17.1 NNW 5 8 1020.6 - 0.0 - - - - - - -
28/11:00am 16.4 NW 5 9 1021.4 - 0.0 - - - - - - -
28/10:30am 15.8 NNW 5 10 1021.7 - 0.0 - - - - - - -
28/10:00am 15.4 NW 4 6 1022.2 - 0.0 - - - - - - -
28/09:30am 14.0 NW 4 7 1022.2 - 0.0 - - - - - - -
28/09:00am 11.8 N 3 5 1022.1 - 0.0 - - - - - - -
28/08:30am 8.6 CALM 0 0 1022.5 - 0.0 - - - - - - -
28/08:00am 6.1 CALM 0 0 1022.3 - 0.0 - - - - - - -
28/07:30am 4.6 CALM 0 2 1022.1 - 0.0 - - - - - - -
28/07:00am 3.9 NNE 2 3 1021.8 - 0.0 - - - - - - -
28/06:30am 3.7 CALM 0 0 1021.8 - 0.0 - - - - - - -
28/06:00am 3.6 CALM 0 0 1021.5 - 0.0 - - - - - - -
28/05:30am 3.4 CALM 0 0 1021.5 - 0.0 - - - - - - -
28/05:00am 3.3 CALM 0 0 1021.8 - 0.0 - - - - - - -
28/04:30am 3.5 CALM 0 0 1021.6 - 0.0 - - - - - - -
28/04:00am 3.1 CALM 0 0 1021.5 - 0.0 - - - - - - -
28/03:30am 3.8 N 1 2 1021.6 - 0.0 - - - - - - -
28/03:00am 3.7 CALM 0 0 1021.9 - 0.0 - - - - - - -
28/02:30am 3.7 CALM 0 0 1021.5 - 0.0 - - - - - - -
28/02:00am 3.8 CALM 0 0 1021.4 - 0.0 - - - - - - -
28/01:30am 4.1 CALM 0 0 1021.7 - 0.0 - - - - - - -
28/01:00am 4.2 CALM 0 2 1021.2 - 0.0 - - - - - - -
28/12:30am 4.4 CALM 0 0 1021.3 - 0.0 - - - - - - -
28/12:00am 4.8 CALM 0 2 1021.9 - 0.0 - - - - - - -
 
Date/Time
EST
Temp

°C
Wind Pressure Rain
since 9am
mm
Weather Cloud Vis
km
Sea
Height
m
Swell
Dir
 
Speed
knots
Gust
knots
hPa Trend Height
m
Period
s
Dir
27/11:30pm 5.0 CALM 0 0 1022.4 - 0.0 - - - - - - -
27/11:00pm 5.1 CALM 0 0 1022.7 - 0.0 - - - - - - -
27/10:30pm 5.8 CALM 0 0 1022.9 - 0.0 - - - - - - -
27/10:00pm 6.2 CALM 0 0 1023.2 - 0.0 - - - - - - -
27/09:30pm 6.4 CALM 0 0 1023.2 - 0.0 - - - - - - -
27/09:00pm 7.0 CALM 0 0 1023.6 - 0.0 - - - - - - -
27/08:30pm 7.6 CALM 0 0 1023.7 - 0.0 - - - - - - -
27/08:00pm 7.9 CALM 0 0 1023.5 - 0.0 - - - - - - -
27/07:30pm 8.4 CALM 0 0 1023.5 - 0.0 - - - - - - -
27/07:00pm 9.2 CALM 0 0 1023.2 - 0.0 - - - - - - -
27/06:30pm 10.0 CALM 0 0 1023.2 - 0.0 - - - - - - -
27/06:00pm 11.0 CALM 0 0 1022.7 - 0.0 - - - - - - -
27/05:30pm 13.0 CALM 0 0 1022.3 - 0.0 - - - - - - -
27/05:00pm 15.1 CALM 0 0 1021.9 - 0.0 - - - - - - -
27/04:30pm 18.0 CALM 0 0 1021.7 - 0.0 - - - - - - -
27/04:00pm 19.1 SW 2 3 1021.7 - 0.0 - - - - - - -
27/03:30pm 19.5 SW 2 4 1021.9 - 0.0 - - - - - - -
27/03:00pm 19.6 SW 3 6 1021.8 - 0.0 - - - - - - -
27/02:30pm 19.5 WSW 4 8 1022.0 - 0.0 - - - - - - -
27/02:00pm 19.2 WSW 5 10 1022.1 - 0.0 - - - - - - -
27/01:30pm 19.2 WSW 2 5 1022.2 - 0.0 - - - - - - -
27/01:00pm 18.5 SW 4 7 1022.5 - 0.0 - - - - - - -
27/12:30pm 18.3 WSW 4 7 1023.0 - 0.0 - - - - - - -
27/12:00pm 17.8 WSW 4 9 1023.5 - 0.0 - - - - - - -
27/11:30am 17.4 SW 4 7 1024.1 - 0.0 - - - - - - -
27/11:00am 16.9 WSW 5 8 1024.6 - 0.0 - - - - - - -
27/10:30am 16.9 SW 3 7 1025.1 - 0.0 - - - - - - -
27/10:00am 15.8 WSW 4 7 1024.9 - 0.0 - - - - - - -
27/09:30am 14.4 SW 3 7 1024.7 - 0.0 - - - - - - -
27/09:00am 11.8 CALM 0 0 1024.5 - 5.6 - - - - - - -
27/08:30am 9.9 CALM 0 0 1024.4 - 5.6 - - - - - - -
27/08:00am 6.0 CALM 0 0 1024.4 - 5.6 - - - - - - -
27/07:30am 4.3 CALM 0 0 1024.3 - 5.6 - - - - - - -
27/07:00am 4.1 CALM 0 0 1024.3 - 5.6 - - - - - - -
27/06:30am 4.1 CALM 0 0 1023.9 - 5.6 - - - - - - -
27/06:00am 4.4 CALM 0 0 1023.5 - 5.6 - - - - - - -
27/05:30am 4.6 CALM 0 0 1023.3 - 5.6 - - - - - - -
27/05:00am 4.8 CALM 0 0 1023.0 - 5.6 - - - - - - -
27/04:30am 5.1 CALM 0 0 1023.0 - 5.4 - - - - - - -
27/04:00am 5.4 CALM 0 0 1023.1 - 5.4 - - - - - - -
27/03:30am 5.2 CALM 0 0 1023.1 - 5.4 - - - - - - -
27/03:00am 5.8 CALM 0 0 1023.2 - 5.4 - - - - - - -
27/02:30am 5.5 CALM 0 0 1023.3 - 5.4 - - - - - - -
27/02:00am 5.5 CALM 0 2 1023.2 - 5.4 - - - - - - -
27/01:30am 5.7 CALM 0 0 1023.2 - 5.4 - - - - - - -
27/01:00am 5.9 CALM 0 0 1023.2 - 5.4 - - - - - - -
27/12:30am 5.8 CALM 0 3 1023.3 - 5.4 - - - - - - -
27/12:00am 6.0 E 1 2 1023.5 - 5.4 - - - - - - -
 
Date/Time
EST
Temp

°C
Wind Pressure Rain
since 9am
mm
Weather Cloud Vis
km
Sea
Height
m
Swell
Dir
 
Speed
knots
Gust
knots
hPa Trend Height
m
Period
s
Dir
26/11:30pm 6.2 CALM 0 0 1023.6 - 5.4 - - - - - - -
26/11:00pm 6.8 CALM 0 0 1023.6 - 5.4 - - - - - - -
26/10:30pm 7.0 CALM 0 0 1023.7 - 5.4 - - - - - - -
26/10:00pm 7.3 CALM 0 0 1023.6 - 5.4 - - - - - - -
26/09:30pm 7.8 CALM 0 0 1023.7 - 5.4 - - - - - - -
26/09:00pm 8.1 CALM 0 0 1023.6 - 5.4 - - - - - - -
26/08:30pm 8.8 CALM 0 0 1023.6 - 5.4 - - - - - - -
26/08:00pm 9.0 CALM 0 0 1023.4 - 5.4 - - - - - - -
26/07:30pm 9.5 N 1 2 1023.1 - 5.4 - - - - - - -
26/07:00pm 10.3 N 3 3 1022.9 - 5.4 - - - - - - -

Other Formats:

Comma delimited format used in spreadsheet applications
http://www.bom.gov.au/fwo/IDN60701/IDN60701.95767.axf

JavaScript Object Notation format (JSON) in row-major order
http://www.bom.gov.au/fwo/IDN60701/IDN60701.95767.json